West Chicago, IL

06:54 CDT le 03 mai 2015 (GMT -0500)
Du Page | | Change Station
CLOSE
Current Station
Aéroport
Location: Chicago DuPage,
Altitude: 758 ft
Stations météo à proximité

Alt. 758 ft 41.90 °N, 88.25 °W | Updated 1 hour ago

Partiellement nuageux
Partiellement nuageux
54 ° F
Paraît 54 ° F
N
6
Vent Variable Vent de SSE

Aujourd'hui
Haut(e) -- | Bas -- ° F
--% Risque de précip.
Hier
Haut(e) -- | Bas -- ° F
Precip. -- pouce
5:46 AM 7:53 PM
Pleine lune, 100% visible
Pression 29.96 pouce
Visibilité 10.0 Miles terrestres
Nuages Peu 10000 ft
Point de rosée 44 ° F
Humidité 69%
Précipitations 0.00 pouce
Profondeur de la couche neigeuse Non disponible.
UV 0 sur 12
Pollen 10.80 sur 12
Qualité de l'air Non disponible.
Flu Activity Local Activity
METAR KDPA 031052Z 16005KT 10SM FEW100 12/07 A2996 RMK AO2 SLP144 T01220067

More Conditions Fewer Conditions

Pression 29.96 pouce
Visibilité 10.0 Miles terrestres
Nuages Peu 10000 ft
Point de rosée 44 ° F
Humidité 69%
Précipitations 0.00 pouce
Profondeur de la couche neigeuse Non disponible.
UV 0 sur 12
Pollen 10.80 sur 12
Qualité de l'air Non disponible.
Flu Activity Local Activity
METAR KDPA 031052Z 16005KT 10SM FEW100 12/07 A2996 RMK AO2 SLP144 T01220067

More Conditions Fewer Conditions

Nepal has a long way to go to dig out and rebuild from a devastating earthquake. We have teamed up with several charities and organizations to make contributing to the relief effort as easy as possible.
How you can help: Portlight Strategies | Red Cross

10-Day Weather Forecast

Almanac

Astronomie

May. 03, 2015 Lever Coucher
Temps réel
Crépuscule civil
Crépuscule nautique
Crépuscule astronomique
Lune
Durée de lumière visible
Longueur du jour
Tomorrow will be .
, % of the Moon is Illuminated

Extrêmes aujourd'hui

State Highs State Lows

Community

WunderPhotos

Upload Photos

1,818,187 Photos téléchargées !

WunderBlogs® & News

Nearby

Qualité de l'air

  Qualité de l'air Indice de la qualité de l'air Polluant
Not available.

Épaisseur de neige

Station Depth Altitude

Activité sismique

Ville Distance Mag. Time & Date
Minimum magnitude displayed is 2.5.

Températures des eaux côtières

Lieu Température

Stations

Stations météo à proximité

Emplacement de la station Température Refroidissement éolien Point de rosée Humidité Vent Precip. Alt. Mise à jour Type